createdAt,value
2019-02-10T00:00:41.238Z,96001.97
2019-02-10T00:05:38.176Z,96000.20
2019-02-10T00:10:35.085Z,95999.12
2019-02-10T00:15:32.048Z,96002.75
2019-02-10T00:20:28.955Z,96003.16
2019-02-10T00:25:26.381Z,96004.44
2019-02-10T00:30:23.379Z,96002.83
2019-02-10T00:35:20.342Z,96011.66
2019-02-10T00:40:17.253Z,96015.53
2019-02-10T00:45:14.233Z,96028.72
2019-02-10T00:50:11.285Z,96034.32
2019-02-10T00:55:08.244Z,96032.64
2019-02-10T01:00:07.538Z,96031.47
2019-02-10T01:05:07.466Z,96044.34
2019-02-10T01:10:07.018Z,96034.88
2019-02-10T01:15:05.361Z,96033.77
2019-02-10T01:20:03.868Z,96040.19
2019-02-10T01:25:00.803Z,96042.69
2019-02-10T01:29:57.723Z,96031.20
2019-02-10T01:34:54.682Z,96037.34
2019-02-10T01:39:51.585Z,96038.05
2019-02-10T01:44:48.534Z,96049.71
2019-02-10T01:49:46.314Z,96044.72
2019-02-10T01:54:43.278Z,96037.73
2019-02-10T01:59:40.190Z,96039.77
2019-02-10T02:04:37.125Z,96034.22
2019-02-10T02:09:34.041Z,96038.80
2019-02-10T02:14:30.986Z,96026.91
2019-02-10T02:19:27.910Z,96032.16
2019-02-10T02:24:24.863Z,96041.34
2019-02-10T02:29:21.766Z,96036.59
2019-02-10T02:34:18.727Z,96023.48
2019-02-10T02:39:15.649Z,96017.44
2019-02-10T02:44:12.579Z,96018.22
2019-02-10T02:49:09.554Z,96011.47
2019-02-10T02:54:06.571Z,96014.25
2019-02-10T02:59:03.470Z,96011.54
2019-02-10T03:04:00.424Z,96012.09
2019-02-10T03:08:57.521Z,96013.78
2019-02-10T03:13:54.489Z,96009.27
2019-02-10T03:18:53.265Z,96001.67
2019-02-10T03:23:50.240Z,95999.58
2019-02-10T03:28:47.163Z,95988.94
2019-02-10T03:33:44.106Z,95994.80
2019-02-10T03:38:41.042Z,95996.83
2019-02-10T03:43:37.977Z,95988.98
2019-02-10T03:48:34.909Z,95979.47
2019-02-10T03:53:32.163Z,95975.45
2019-02-10T03:58:30.210Z,95981.60
2019-02-10T04:03:27.273Z,95973.55
2019-02-10T04:08:24.199Z,95980.75
2019-02-10T04:13:21.144Z,95979.23
2019-02-10T04:18:18.263Z,95979.34
2019-02-10T04:23:15.211Z,95977.77
2019-02-10T04:28:12.114Z,95977.02
2019-02-10T04:33:09.086Z,95978.70
2019-02-10T04:38:06.203Z,95972.94
2019-02-10T04:43:03.135Z,95972.53
2019-02-10T04:48:00.058Z,95963.83
2019-02-10T04:52:56.994Z,95955.07
2019-02-10T04:57:53.910Z,95956.72
2019-02-10T05:02:51.794Z,95952.88
2019-02-10T05:07:54.330Z,95951.69
2019-02-10T05:12:47.575Z,95960.50
2019-02-10T05:17:44.476Z,95961.79
2019-02-10T05:22:41.421Z,95963.88
2019-02-10T05:27:38.371Z,95959.18
2019-02-10T05:32:35.324Z,95967.83
2019-02-10T05:37:32.323Z,95960.88
2019-02-10T05:42:29.261Z,95962.02
2019-02-10T05:47:26.186Z,95957.56
2019-02-10T05:52:23.145Z,95957.56
2019-02-10T05:57:20.036Z,95969.77
2019-02-10T06:02:18.786Z,95961.71
2019-02-10T06:07:16.739Z,95966.06
2019-02-10T06:12:13.866Z,95975.88
2019-02-10T06:17:10.785Z,95974.98
2019-02-10T06:22:08.131Z,95975.95
2019-02-10T06:27:05.025Z,95967.00
2019-02-10T06:32:02.008Z,95964.25
2019-02-10T06:36:58.911Z,95959.80
2019-02-10T06:41:55.871Z,95966.47
2019-02-10T06:46:52.769Z,95969.11
2019-02-10T06:51:49.720Z,95983.50
2019-02-10T06:56:46.670Z,95992.97
2019-02-10T07:01:45.408Z,95985.19
2019-02-10T07:06:42.368Z,95985.81
2019-02-10T07:11:39.660Z,95993.05
2019-02-10T07:16:45.037Z,95994.65
2019-02-10T07:21:42.257Z,95986.11
2019-02-10T07:26:58.190Z,95990.06
2019-02-10T07:31:55.117Z,95978.78
2019-02-10T07:37:00.177Z,95974.70
2019-02-10T07:42:28.129Z,95971.22
2019-02-10T07:47:36.239Z,95968.71
2019-02-10T07:52:53.910Z,95967.20
2019-02-10T07:58:29.993Z,95962.23
2019-02-10T08:03:47.441Z,95975.54
2019-02-10T08:09:12.709Z,95975.03
2019-02-10T08:14:36.168Z,95960.23
2019-02-10T08:19:55.395Z,95962.88
2019-02-10T08:25:00.630Z,95969.14
2019-02-10T08:30:14.883Z,95965.37
2019-02-10T08:35:32.356Z,95974.67
2019-02-10T08:40:46.265Z,95962.91
2019-02-10T08:45:57.634Z,95948.47
2019-02-10T08:51:27.831Z,95942.12
2019-02-10T08:56:24.758Z,95926.81
2019-02-10T09:01:21.709Z,95925.91
2019-02-10T09:06:18.625Z,95917.82
2019-02-10T09:11:15.588Z,95917.67
2019-02-10T09:16:12.549Z,95906.96
2019-02-10T09:21:09.495Z,95898.17
2019-02-10T09:26:06.392Z,95892.98
2019-02-10T09:31:03.341Z,95896.02
2019-02-10T09:36:00.257Z,95894.52
2019-02-10T09:40:57.230Z,95877.17
2019-02-10T09:45:54.152Z,95877.16
2019-02-10T09:50:51.178Z,95870.20
2019-02-10T09:55:48.078Z,95866.91
2019-02-10T10:00:45.026Z,95856.80
2019-02-10T10:05:41.956Z,95864.03
2019-02-10T10:10:38.958Z,95855.27
2019-02-10T10:15:35.896Z,95840.02
2019-02-10T10:20:32.887Z,95818.09
2019-02-10T10:25:29.828Z,95826.88
2019-02-10T10:30:28.588Z,95819.02
2019-02-10T10:35:25.485Z,95806.53
2019-02-10T10:40:22.467Z,95798.50
2019-02-10T10:45:19.382Z,95794.72
2019-02-10T10:50:16.495Z,95789.78
2019-02-10T10:55:13.437Z,95778.81
2019-02-10T11:00:15.094Z,95763.15
2019-02-10T11:05:12.381Z,95755.27
2019-02-10T11:10:11.362Z,95736.67
2019-02-10T11:15:14.177Z,95732.50
2019-02-10T11:20:11.620Z,95709.19
2019-02-10T11:25:10.152Z,95705.91
2019-02-10T11:30:13.578Z,95697.61
2019-02-10T11:35:10.750Z,95695.84
2019-02-10T11:40:12.089Z,95694.30
2019-02-10T11:45:13.825Z,95693.83
2019-02-10T11:50:12.473Z,95683.36
2019-02-10T11:55:10.003Z,95681.77
2019-02-10T12:00:17.115Z,95670.62
2019-02-10T12:05:14.208Z,95664.35
2019-02-10T12:10:12.525Z,95652.99
2019-02-10T12:15:14.108Z,95644.23
2019-02-10T12:20:12.945Z,95641.55
2019-02-10T12:25:10.162Z,95629.38
2019-02-10T12:30:14.906Z,95617.09
2019-02-10T12:35:12.027Z,95606.03
2019-02-10T12:40:10.767Z,95602.53
2019-02-10T12:45:13.290Z,95598.08
2019-02-10T12:50:12.895Z,95579.09
2019-02-10T12:55:11.575Z,95577.59
2019-02-10T13:00:18.399Z,95575.64
2019-02-10T13:05:15.560Z,95558.77
2019-02-10T13:10:17.814Z,95543.20
2019-02-10T13:15:14.297Z,95538.91
2019-02-10T13:20:12.214Z,95534.66
2019-02-10T13:25:10.763Z,95521.88
2019-02-10T13:30:16.889Z,95508.52
2019-02-10T13:35:13.859Z,95502.55
2019-02-10T13:40:21.915Z,95483.05
2019-02-10T13:45:18.988Z,95474.82
2019-02-10T13:50:17.819Z,95465.34
2019-02-10T13:55:16.154Z,95460.38
2019-02-10T14:00:20.588Z,95446.04
2019-02-10T14:05:17.511Z,95440.09
2019-02-10T14:10:25.326Z,95437.52
2019-02-10T14:15:18.761Z,95435.78
2019-02-10T14:20:18.650Z,95424.02
2019-02-10T14:25:15.665Z,95409.08
2019-02-10T14:30:18.120Z,95407.58
2019-02-10T14:35:15.146Z,95414.97
2019-02-10T14:40:12.580Z,95419.91
2019-02-10T14:45:14.171Z,95413.61
2019-02-10T14:50:18.441Z,95401.27
2019-02-10T14:55:15.412Z,95395.66
2019-02-10T15:00:15.878Z,95386.50
2019-02-10T15:05:13.102Z,95382.26
2019-02-10T15:10:17.134Z,95360.00
2019-02-10T15:15:14.182Z,95355.00
2019-02-10T15:20:12.231Z,95343.64
2019-02-10T15:25:11.852Z,95329.90
2019-02-10T15:30:15.872Z,95310.18
2019-02-10T15:35:12.840Z,95308.02
2019-02-10T15:40:13.212Z,95307.81
2019-02-10T15:45:12.669Z,95296.52
2019-02-10T15:50:13.389Z,95300.36
2019-02-10T15:55:11.634Z,95278.03
2019-02-10T16:00:28.788Z,95276.37
2019-02-10T16:05:26.712Z,95244.27
2019-02-10T16:10:24.233Z,95246.20
2019-02-10T16:15:21.278Z,95239.11
2019-02-10T16:20:18.275Z,95244.86
2019-02-10T16:25:15.265Z,95231.38
2019-02-10T16:30:15.089Z,95211.09
2019-02-10T16:35:12.099Z,95206.66
2019-02-10T16:40:20.317Z,95212.07
2019-02-10T16:45:17.380Z,95208.84
2019-02-10T16:50:16.282Z,95194.48
2019-02-10T16:55:19.396Z,95189.72
2019-02-10T17:00:16.935Z,95187.87
2019-02-10T17:05:13.888Z,95176.45
2019-02-10T17:10:16.206Z,95174.69
2019-02-10T17:15:13.188Z,95168.03
2019-02-10T17:20:14.742Z,95172.20
2019-02-10T17:25:28.820Z,95136.25
2019-02-10T17:30:26.312Z,95133.09
2019-02-10T17:35:23.255Z,95112.05
2019-02-10T17:40:31.579Z,95109.45
2019-02-10T17:45:28.491Z,95090.66
2019-02-10T17:50:25.453Z,95089.58
2019-02-10T17:55:22.521Z,95063.26
2019-02-10T18:00:22.080Z,95067.04
2019-02-10T18:05:19.477Z,95065.08
2019-02-10T18:10:16.569Z,95059.21
2019-02-10T18:15:13.452Z,95044.27
2019-02-10T18:20:15.234Z,95035.97
2019-02-10T18:25:20.211Z,95029.04
2019-02-10T18:30:22.036Z,95014.09
2019-02-10T18:35:21.469Z,95015.54
2019-02-10T18:40:30.564Z,95001.72
2019-02-10T18:45:32.368Z,94994.73
2019-02-10T18:50:43.657Z,94986.02
2019-02-10T18:55:44.909Z,94974.71
2019-02-10T19:01:00.404Z,94959.51
2019-02-10T19:06:16.043Z,94955.02
2019-02-10T19:11:31.709Z,94953.96
2019-02-10T19:16:28.568Z,94956.42
2019-02-10T19:21:43.875Z,94929.05
2019-02-10T19:26:43.702Z,94936.59
2019-02-10T19:31:59.079Z,94920.11
2019-02-10T19:36:58.306Z,94917.38
2019-02-10T19:41:55.860Z,94914.36
2019-02-10T19:47:00.594Z,94903.56
2019-02-10T19:52:16.213Z,94909.36
2019-02-10T19:57:27.322Z,94912.90
2019-02-10T20:02:28.683Z,94891.00
2019-02-10T20:07:28.014Z,94868.84
2019-02-10T20:12:26.822Z,94869.83
2019-02-10T20:17:25.737Z,94872.89
2019-02-10T20:22:33.294Z,94883.48
2019-02-10T20:27:37.961Z,94875.11
2019-02-10T20:32:36.685Z,94842.91
2019-02-10T20:43:01.584Z,94834.28
2019-02-10T20:48:09.435Z,94830.98
2019-02-10T20:53:24.840Z,94821.24
2019-02-10T20:58:40.720Z,94824.59
2019-02-10T21:03:55.978Z,94813.91
2019-02-10T21:09:00.556Z,94795.26
2019-02-10T21:14:11.499Z,94798.66
2019-02-10T21:19:19.335Z,94787.81
2019-02-10T21:24:36.553Z,94787.60
2019-02-10T21:29:39.301Z,94777.09
2019-02-10T21:34:38.032Z,94787.45
2019-02-10T21:39:42.902Z,94779.79
2019-02-10T21:44:41.629Z,94762.67
2019-02-10T21:49:38.620Z,94776.11
2019-02-10T21:54:35.805Z,94762.44
2019-02-10T21:59:32.812Z,94763.45
2019-02-10T22:04:29.751Z,94775.51
2019-02-10T22:09:26.691Z,94766.92
2019-02-10T22:14:23.605Z,94763.81
2019-02-10T22:19:20.610Z,94736.56
2019-02-10T22:24:17.504Z,94750.95
2019-02-10T22:29:14.463Z,94729.38
2019-02-10T22:34:11.384Z,94757.84
2019-02-10T22:39:08.330Z,94762.59
2019-02-10T22:44:05.648Z,94761.05
2019-02-10T22:49:02.607Z,94749.63
2019-02-10T22:53:59.524Z,94749.06
2019-02-10T22:58:56.471Z,94742.73
2019-02-10T23:03:53.471Z,94724.02
2019-02-10T23:08:50.852Z,94721.80
2019-02-10T23:13:47.778Z,94711.50
2019-02-10T23:18:44.725Z,94694.03
2019-02-10T23:23:41.669Z,94692.58
2019-02-10T23:28:39.029Z,94692.25
2019-02-10T23:33:35.959Z,94696.28
2019-02-10T23:38:32.918Z,94686.59
2019-02-10T23:43:29.832Z,94675.25
2019-02-10T23:48:26.845Z,94661.30
2019-02-10T23:53:23.741Z,94658.77
2019-02-10T23:58:20.842Z,94650.09
